createdAt,value
2017-11-19T00:00:24.490Z,10.22
2017-11-19T00:01:04.884Z,10.17
2017-11-19T00:01:45.370Z,10.22
2017-11-19T00:02:25.798Z,10.16
2017-11-19T00:03:06.714Z,10.17
2017-11-19T00:03:47.240Z,10.1
2017-11-19T00:04:27.685Z,10.13
2017-11-19T00:05:08.060Z,10.06
2017-11-19T00:05:48.514Z,9.98
2017-11-19T00:06:28.906Z,10.01
2017-11-19T00:07:09.264Z,10.06
2017-11-19T00:07:49.674Z,10.07
2017-11-19T00:08:30.153Z,10.13
2017-11-19T00:09:11.238Z,10.1
2017-11-19T00:09:51.410Z,10.07
2017-11-19T00:10:31.851Z,10.02
2017-11-19T00:11:12.285Z,10.01
2017-11-19T00:11:52.702Z,9.98
2017-11-19T00:12:33.061Z,10.04
2017-11-19T00:13:13.605Z,10.01
2017-11-19T00:13:54.744Z,9.95
2017-11-19T00:14:34.639Z,10.01
2017-11-19T00:15:15.037Z,9.96
2017-11-19T00:15:55.406Z,9.92
2017-11-19T00:16:35.862Z,10.01
2017-11-19T00:17:16.653Z,10.04
2017-11-19T00:17:57.007Z,10.02
2017-11-19T00:18:37.402Z,10.06
2017-11-19T00:19:17.906Z,10.13
2017-11-19T00:19:58.440Z,10.07
2017-11-19T00:20:38.840Z,10.16
2017-11-19T00:21:19.347Z,10.14
2017-11-19T00:21:59.933Z,10.24
2017-11-19T00:22:40.301Z,10.22
2017-11-19T00:23:20.831Z,10.2
2017-11-19T00:24:01.249Z,10.18
2017-11-19T00:24:41.589Z,10.25
2017-11-19T00:25:22.028Z,10.18
2017-11-19T00:26:02.532Z,10.2
2017-11-19T00:26:42.897Z,10.25
2017-11-19T00:27:23.283Z,10.25
2017-11-19T00:28:03.733Z,10.22
2017-11-19T00:28:44.277Z,10.24
2017-11-19T00:29:24.677Z,10.24
2017-11-19T00:30:05.124Z,10.24
2017-11-19T00:30:45.606Z,10.38
2017-11-19T00:31:26.003Z,10.26
2017-11-19T00:32:06.453Z,10.28
2017-11-19T00:32:46.937Z,10.28
2017-11-19T00:33:27.541Z,10.28
2017-11-19T00:34:07.926Z,10.26
2017-11-19T00:34:48.482Z,10.16
2017-11-19T00:35:29.094Z,10.14
2017-11-19T00:36:09.468Z,10.06
2017-11-19T00:36:49.912Z,10.06
2017-11-19T00:37:30.379Z,10.09
2017-11-19T00:38:10.728Z,10.06
2017-11-19T00:38:52.065Z,10.02
2017-11-19T00:39:33.215Z,9.92
2017-11-19T00:40:14.456Z,9.86
2017-11-19T00:40:55.207Z,9.89
2017-11-19T00:41:35.770Z,9.75
2017-11-19T00:42:17.182Z,9.65
2017-11-19T00:42:58.356Z,9.7
2017-11-19T00:43:38.780Z,9.6
2017-11-19T00:44:19.152Z,9.6
2017-11-19T00:44:59.583Z,9.52
2017-11-19T00:45:40.060Z,9.48
2017-11-19T00:46:20.592Z,9.41
2017-11-19T00:47:02.839Z,9.32
2017-11-19T00:47:45.470Z,9.3
2017-11-19T00:48:27.779Z,9.26
2017-11-19T00:49:13.685Z,9.27
2017-11-19T00:49:55.293Z,9.31
2017-11-19T00:50:36.290Z,9.34
2017-11-19T00:51:17.131Z,9.3
2017-11-19T00:51:59.226Z,9.3
2017-11-19T00:52:39.483Z,9.27
2017-11-19T00:53:19.939Z,9.23
2017-11-19T00:54:02.354Z,9.13
2017-11-19T00:54:43.057Z,9.13
2017-11-19T00:55:25.542Z,9.08
2017-11-19T00:56:06.724Z,9
2017-11-19T00:56:48.914Z,9.01
2017-11-19T00:57:31.908Z,8.94
2017-11-19T00:58:14.589Z,8.96
2017-11-19T00:58:56.416Z,8.93
2017-11-19T00:59:37.811Z,8.91
2017-11-19T01:00:18.234Z,8.83
2017-11-19T01:00:58.867Z,8.79
2017-11-19T01:01:39.289Z,8.79
2017-11-19T01:02:19.861Z,8.73
2017-11-19T01:03:00.284Z,8.76
2017-11-19T01:03:40.827Z,8.76
2017-11-19T01:04:21.793Z,8.76
2017-11-19T01:05:03.339Z,8.79
2017-11-19T01:05:43.822Z,8.79
2017-11-19T01:06:24.211Z,8.91
2017-11-19T01:07:04.718Z,9
2017-11-19T01:07:45.287Z,9.06
2017-11-19T01:08:25.644Z,9.1
2017-11-19T01:09:06.006Z,9.17
2017-11-19T01:09:47.464Z,9.24
2017-11-19T01:10:27.952Z,9.2
2017-11-19T01:11:08.399Z,9.16
2017-11-19T01:11:48.831Z,9.24
2017-11-19T01:12:29.219Z,9.24
2017-11-19T01:13:09.595Z,9.23
2017-11-19T01:13:50.088Z,9.27
2017-11-19T01:14:30.415Z,9.31
2017-11-19T01:15:10.862Z,9.38
2017-11-19T01:15:51.418Z,9.26
2017-11-19T01:16:31.834Z,9.41
2017-11-19T01:17:12.376Z,9.34
2017-11-19T01:17:52.934Z,9.31
2017-11-19T01:18:33.419Z,9.31
2017-11-19T01:19:13.874Z,9.35
2017-11-19T01:19:54.412Z,9.38
2017-11-19T01:20:34.861Z,9.42
2017-11-19T01:21:15.225Z,9.42
2017-11-19T01:21:55.716Z,9.49
2017-11-19T01:22:36.164Z,9.55
2017-11-19T01:23:17.146Z,9.48
2017-11-19T01:23:57.613Z,9.53
2017-11-19T01:24:38.057Z,9.49
2017-11-19T01:25:18.502Z,9.53
2017-11-19T01:25:59.056Z,9.55
2017-11-19T01:26:40.234Z,9.52
2017-11-19T01:27:20.772Z,9.55
2017-11-19T01:28:01.406Z,9.45
2017-11-19T01:28:41.676Z,9.49
2017-11-19T01:29:22.088Z,9.44
2017-11-19T01:30:04.486Z,9.31
2017-11-19T01:30:45.295Z,9.37
2017-11-19T01:31:26.377Z,9.42
2017-11-19T01:32:07.997Z,9.41
2017-11-19T01:32:48.454Z,9.45
2017-11-19T01:33:29.075Z,9.41
2017-11-19T01:34:09.475Z,9.48
2017-11-19T01:34:49.930Z,9.4
2017-11-19T01:35:30.636Z,9.35
2017-11-19T01:36:11.893Z,9.32
2017-11-19T01:36:52.479Z,9.4
2017-11-19T01:37:33.001Z,9.4
2017-11-19T01:38:13.531Z,9.53
2017-11-19T01:38:53.985Z,9.53
2017-11-19T01:39:34.687Z,9.56
2017-11-19T01:40:15.173Z,9.63
2017-11-19T01:40:55.674Z,9.62
2017-11-19T01:41:36.158Z,9.67
2017-11-19T01:42:18.540Z,9.62
2017-11-19T01:42:59.309Z,9.63
2017-11-19T01:43:40.324Z,9.59
2017-11-19T01:44:20.686Z,9.58
2017-11-19T01:45:01.039Z,9.55
2017-11-19T01:45:41.509Z,9.59
2017-11-19T01:46:22.119Z,9.52
2017-11-19T01:47:02.653Z,9.42
2017-11-19T01:47:43.037Z,9.45
2017-11-19T01:48:23.494Z,9.45
2017-11-19T01:49:04.064Z,9.41
2017-11-19T01:49:44.741Z,9.52
2017-11-19T01:50:25.108Z,9.55
2017-11-19T01:51:05.510Z,9.49
2017-11-19T01:51:46.416Z,9.55
2017-11-19T01:52:27.145Z,9.58
2017-11-19T01:53:07.652Z,9.52
2017-11-19T01:53:48.180Z,9.52
2017-11-19T01:54:28.630Z,9.53
2017-11-19T01:55:09.015Z,9.55
2017-11-19T01:55:49.402Z,9.45
2017-11-19T01:56:29.849Z,9.53
2017-11-19T01:57:10.305Z,9.5
2017-11-19T01:57:50.678Z,9.53
2017-11-19T01:58:31.398Z,9.62
2017-11-19T01:59:11.950Z,9.59
2017-11-19T01:59:52.414Z,9.52
2017-11-19T02:00:32.884Z,9.53
2017-11-19T02:01:13.312Z,9.63
2017-11-19T02:01:53.762Z,9.68
2017-11-19T02:02:34.263Z,9.73
2017-11-19T02:03:14.762Z,9.63
2017-11-19T02:03:55.345Z,9.59
2017-11-19T02:04:36.085Z,9.62
2017-11-19T02:05:16.566Z,9.65
2017-11-19T02:05:57.685Z,9.62
2017-11-19T02:06:38.568Z,9.55
2017-11-19T02:07:19.091Z,9.58
2017-11-19T02:07:59.937Z,9.59
2017-11-19T02:08:40.428Z,9.58
2017-11-19T02:09:20.961Z,9.5
2017-11-19T02:10:02.529Z,9.55
2017-11-19T02:10:42.983Z,9.53
2017-11-19T02:11:23.423Z,9.58
2017-11-19T02:12:03.894Z,9.5
2017-11-19T02:12:44.415Z,9.6
2017-11-19T02:13:24.867Z,9.62
2017-11-19T02:14:05.358Z,9.68
2017-11-19T02:14:45.705Z,9.62
2017-11-19T02:15:26.133Z,9.65
2017-11-19T02:16:06.578Z,9.67
2017-11-19T02:16:47.131Z,9.56
2017-11-19T02:17:27.698Z,9.5
2017-11-19T02:18:08.804Z,9.49
2017-11-19T02:18:49.611Z,9.45
2017-11-19T02:19:30.042Z,9.48
2017-11-19T02:20:10.485Z,9.49
2017-11-19T02:20:50.932Z,9.49
2017-11-19T02:21:31.465Z,9.49
2017-11-19T02:22:12.020Z,9.52
2017-11-19T02:22:52.380Z,9.44
2017-11-19T02:23:32.813Z,9.53
2017-11-19T02:24:13.243Z,9.59
2017-11-19T02:24:53.565Z,9.58
2017-11-19T02:25:34.937Z,9.59
2017-11-19T02:26:15.346Z,9.62
2017-11-19T02:26:55.771Z,9.71
2017-11-19T02:27:36.164Z,9.71
2017-11-19T02:28:16.791Z,9.67
2017-11-19T02:28:57.234Z,9.59
2017-11-19T02:29:37.654Z,9.65
2017-11-19T02:30:18.244Z,9.59
2017-11-19T02:30:58.728Z,9.52
2017-11-19T02:31:39.779Z,9.56
2017-11-19T02:32:19.716Z,9.42
2017-11-19T02:33:00.891Z,9.41
2017-11-19T02:33:41.719Z,9.38
2017-11-19T02:34:22.155Z,9.37
2017-11-19T02:35:02.804Z,9.34
2017-11-19T02:35:43.427Z,9.23
2017-11-19T02:36:24.426Z,9.23
2017-11-19T02:37:04.893Z,9.3
2017-11-19T02:37:46.927Z,9.34
2017-11-19T02:38:27.509Z,9.31
2017-11-19T02:39:08.167Z,9.17
2017-11-19T02:39:48.707Z,9.22
2017-11-19T02:40:29.116Z,9.24
2017-11-19T02:41:09.634Z,9.23
2017-11-19T02:41:50.364Z,9.2
2017-11-19T02:42:30.743Z,9.17
2017-11-19T02:43:11.289Z,9.17
2017-11-19T02:43:52.139Z,9.16
2017-11-19T02:44:32.663Z,9.19
2017-11-19T02:45:13.442Z,9.27
2017-11-19T02:45:54.217Z,9.22
2017-11-19T02:46:34.774Z,9.34
2017-11-19T02:47:15.417Z,9.24
2017-11-19T02:47:55.704Z,9.34
2017-11-19T02:48:36.161Z,9.31
2017-11-19T02:49:19.130Z,9.27
2017-11-19T02:49:59.989Z,9.23
2017-11-19T02:50:40.370Z,9.31
2017-11-19T02:51:20.852Z,9.17
2017-11-19T02:52:01.208Z,9.26
2017-11-19T02:52:41.644Z,9.34
2017-11-19T02:53:22.008Z,9.32
2017-11-19T02:54:02.425Z,9.34
2017-11-19T02:54:42.880Z,9.26
2017-11-19T02:55:23.266Z,9.3
2017-11-19T02:56:03.748Z,9.34
2017-11-19T02:56:44.163Z,9.4
2017-11-19T02:57:24.696Z,9.38
2017-11-19T02:58:05.201Z,9.37
2017-11-19T02:58:45.584Z,9.41
2017-11-19T02:59:26.011Z,9.4
2017-11-19T03:00:06.877Z,9.41
2017-11-19T03:00:47.243Z,9.42
2017-11-19T03:01:27.724Z,9.42
2017-11-19T03:02:08.068Z,9.34
2017-11-19T03:02:48.874Z,9.35
2017-11-19T03:03:29.413Z,9.3
2017-11-19T03:04:09.785Z,9.27
2017-11-19T03:04:50.203Z,9.35
2017-11-19T03:05:30.628Z,9.4
2017-11-19T03:06:11.131Z,9.42
2017-11-19T03:06:51.782Z,9.41
2017-11-19T03:07:32.342Z,9.49
2017-11-19T03:08:13.042Z,9.42
2017-11-19T03:08:53.812Z,9.41
2017-11-19T03:09:34.259Z,9.41
2017-11-19T03:10:14.730Z,9.45
2017-11-19T03:10:55.311Z,9.35
2017-11-19T03:11:35.659Z,9.37
2017-11-19T03:12:16.611Z,9.34
2017-11-19T03:12:57.024Z,9.38
2017-11-19T03:13:37.476Z,9.31
2017-11-19T03:14:18.003Z,9.32
2017-11-19T03:14:58.691Z,9.4
2017-11-19T03:15:39.066Z,9.34
2017-11-19T03:16:19.520Z,9.35
2017-11-19T03:16:59.851Z,9.31
2017-11-19T03:17:40.503Z,9.4
2017-11-19T03:18:21.681Z,9.3
2017-11-19T03:19:02.120Z,9.38
2017-11-19T03:19:42.586Z,9.35
2017-11-19T03:20:22.983Z,9.3
2017-11-19T03:21:03.566Z,9.31
2017-11-19T03:21:43.993Z,9.31
2017-11-19T03:22:24.553Z,9.3
2017-11-19T03:23:05.012Z,9.38
2017-11-19T03:23:45.425Z,9.4
2017-11-19T03:24:25.813Z,9.42
2017-11-19T03:25:06.324Z,9.48
2017-11-19T03:25:47.412Z,9.34
2017-11-19T03:26:27.854Z,9.45
2017-11-19T03:27:08.316Z,9.44
2017-11-19T03:27:48.994Z,9.41
2017-11-19T03:28:29.382Z,9.38
2017-11-19T03:29:10.129Z,9.32
2017-11-19T03:29:50.419Z,9.5
2017-11-19T03:30:30.860Z,9.45
2017-11-19T03:31:11.927Z,9.58
2017-11-19T03:31:52.887Z,9.55
2017-11-19T03:32:33.691Z,9.63
2017-11-19T03:33:14.170Z,9.62
2017-11-19T03:33:54.735Z,9.62
2017-11-19T03:34:35.268Z,9.59
2017-11-19T03:35:15.721Z,9.53
2017-11-19T03:35:56.162Z,9.49
2017-11-19T03:36:36.430Z,9.5
2017-11-19T03:37:17.455Z,9.49
2017-11-19T03:37:58.145Z,9.5
2017-11-19T03:38:38.669Z,9.53
2017-11-19T03:39:19.221Z,9.5
2017-11-19T03:40:00.037Z,9.56
2017-11-19T03:40:40.412Z,9.63
2017-11-19T03:41:20.643Z,9.62
2017-11-19T03:42:01.139Z,9.71
2017-11-19T03:42:41.541Z,9.71
2017-11-19T03:43:22.026Z,9.56
2017-11-19T03:44:02.641Z,9.53
2017-11-19T03:44:43.049Z,9.56
2017-11-19T03:45:23.466Z,9.49
2017-11-19T03:46:04.429Z,9.5
2017-11-19T03:46:44.562Z,9.58
2017-11-19T03:47:25.016Z,9.52
2017-11-19T03:48:05.867Z,9.5
2017-11-19T03:48:46.446Z,9.52
2017-11-19T03:49:27.639Z,9.59
2017-11-19T03:50:08.310Z,9.6
2017-11-19T03:50:48.699Z,9.53
2017-11-19T03:51:29.352Z,9.5
2017-11-19T03:52:10.009Z,9.45
2017-11-19T03:52:50.446Z,9.42
2017-11-19T03:53:31.023Z,9.37
2017-11-19T03:54:11.500Z,9.26
2017-11-19T03:54:52.288Z,9.34
2017-11-19T03:55:32.468Z,9.38
2017-11-19T03:56:13.475Z,9.31
2017-11-19T03:56:53.932Z,9.24
2017-11-19T03:57:34.299Z,9.31
2017-11-19T03:58:15.039Z,9.32
2017-11-19T03:58:55.505Z,9.32
2017-11-19T03:59:36.065Z,9.34
2017-11-19T04:00:17.227Z,9.34
2017-11-19T04:00:58.580Z,9.44
2017-11-19T04:01:39.053Z,9.49
2017-11-19T04:42:10.019Z,8.98
2017-11-19T04:42:51.075Z,8.98
2017-11-19T04:43:31.501Z,8.94
2017-11-19T04:44:12.625Z,8.98
2017-11-19T04:44:53.087Z,8.93
2017-11-19T04:45:33.625Z,8.85
2017-11-19T04:46:14.009Z,8.79
2017-11-19T04:46:54.457Z,8.83
2017-11-19T04:47:34.806Z,8.8
2017-11-19T04:48:15.201Z,8.71
2017-11-19T04:48:55.634Z,8.73
2017-11-19T04:49:36.051Z,8.7
2017-11-19T04:50:16.538Z,8.73
2017-11-19T04:50:57.014Z,8.75
2017-11-19T04:51:37.506Z,8.85
2017-11-19T04:52:17.989Z,8.8
2017-11-19T04:52:58.456Z,8.67
2017-11-19T04:53:39.014Z,8.78
2017-11-19T04:54:20.080Z,8.73
2017-11-19T04:55:00.510Z,8.8
2017-11-19T04:55:41.004Z,8.79
2017-11-19T04:56:21.441Z,8.82
2017-11-19T04:57:01.877Z,8.78
2017-11-19T04:57:43.030Z,8.78
2017-11-19T04:58:23.461Z,8.86
2017-11-19T04:59:03.923Z,8.93
2017-11-19T04:59:44.273Z,8.98
2017-11-19T05:00:24.709Z,8.94
2017-11-19T05:01:05.253Z,9.08
2017-11-19T05:01:45.703Z,9.04
2017-11-19T05:02:26.126Z,9
2017-11-19T05:03:06.483Z,9.06
2017-11-19T05:03:47.209Z,9.1
2017-11-19T05:04:27.909Z,9.12
2017-11-19T05:05:09.523Z,9.01
2017-11-19T05:05:49.365Z,8.97
2017-11-19T05:06:31.044Z,8.94
2017-11-19T05:07:11.531Z,8.94
2017-11-19T05:07:52.000Z,9.06
2017-11-19T05:08:33.009Z,9.12
2017-11-19T05:09:13.584Z,9.12
2017-11-19T05:09:54.656Z,9.15
2017-11-19T05:10:35.441Z,9.08
2017-11-19T05:11:15.562Z,9.06
2017-11-19T05:11:56.782Z,9.06
2017-11-19T05:12:37.502Z,9.12
2017-11-19T05:13:18.696Z,9.08
2017-11-19T05:13:59.201Z,9.06
2017-11-19T05:14:40.531Z,9.03
2017-11-19T05:15:21.001Z,9.08
2017-11-19T05:16:01.524Z,9.08
2017-11-19T05:16:43.710Z,9.06
2017-11-19T05:17:25.024Z,8.98
2017-11-19T05:18:05.161Z,9.08
2017-11-19T05:18:46.586Z,9.08
2017-11-19T05:19:28.170Z,9.1
2017-11-19T05:20:08.231Z,9.16
2017-11-19T05:20:49.021Z,9.17
2017-11-19T05:21:30.998Z,9.19
2017-11-19T05:22:11.247Z,9.13
2017-11-19T05:22:51.702Z,9.17
2017-11-19T05:23:32.070Z,9.2
2017-11-19T05:24:13.486Z,9.16
2017-11-19T05:24:53.954Z,9.13
2017-11-19T05:25:34.652Z,9.15
2017-11-19T05:26:15.510Z,9.1
2017-11-19T05:26:56.061Z,8.97
2017-11-19T05:27:36.775Z,8.94
2017-11-19T05:28:17.312Z,8.88
2017-11-19T05:28:57.892Z,8.78
2017-11-19T05:29:38.227Z,8.76
2017-11-19T05:30:18.759Z,8.75
2017-11-19T05:30:59.168Z,8.79
2017-11-19T05:31:39.605Z,8.83
2017-11-19T05:32:20.005Z,8.79
2017-11-19T05:33:00.456Z,8.73
2017-11-19T05:33:40.985Z,8.76
2017-11-19T05:34:21.578Z,8.78
2017-11-19T05:35:02.580Z,8.76
2017-11-19T05:35:43.116Z,8.75
2017-11-19T05:36:23.517Z,8.79
2017-11-19T05:37:04.119Z,8.78
2017-11-19T05:37:45.031Z,8.82
2017-11-19T05:38:26.912Z,8.85
2017-11-19T05:39:07.799Z,8.73
2017-11-19T05:39:48.816Z,8.73
2017-11-19T05:40:29.285Z,8.88
2017-11-19T05:41:10.690Z,8.78
2017-11-19T05:41:50.844Z,8.82
2017-11-19T05:42:32.127Z,8.91
2017-11-19T05:43:13.407Z,8.93
2017-11-19T05:43:54.035Z,8.89
2017-11-19T05:44:34.566Z,8.8
2017-11-19T05:45:17.956Z,8.76
2017-11-19T05:45:58.106Z,8.79
2017-11-19T05:46:38.544Z,8.76
2017-11-19T05:47:19.047Z,8.64
2017-11-19T05:47:59.537Z,8.63
2017-11-19T05:48:40.003Z,8.71
2017-11-19T05:49:20.350Z,8.76
2017-11-19T05:50:00.820Z,8.7
2017-11-19T05:50:41.183Z,8.65
2017-11-19T05:51:21.674Z,8.73
2017-11-19T05:52:02.086Z,8.76
2017-11-19T05:52:42.500Z,8.79
2017-11-19T05:53:22.884Z,8.82
2017-11-19T05:54:03.329Z,8.75
2017-11-19T05:54:43.830Z,8.76
2017-11-19T05:55:24.213Z,8.73
2017-11-19T05:56:04.615Z,8.64
2017-11-19T05:56:45.066Z,8.64
2017-11-19T05:57:25.600Z,8.75
2017-11-19T05:58:06.109Z,8.68
2017-11-19T05:58:46.716Z,8.73
2017-11-19T05:59:27.199Z,8.8
2017-11-19T06:00:07.708Z,8.86
2017-11-19T06:00:48.189Z,8.96
2017-11-19T06:01:28.546Z,8.93
2017-11-19T06:02:09.109Z,8.97
2017-11-19T06:02:49.915Z,8.98
2017-11-19T06:03:30.116Z,9.06
2017-11-19T06:04:10.764Z,9.03
2017-11-19T06:04:51.704Z,8.88
2017-11-19T06:05:32.305Z,8.94
2017-11-19T06:06:13.076Z,8.96
2017-11-19T06:06:53.562Z,8.89
2017-11-19T06:07:34.479Z,8.88
2017-11-19T06:08:15.539Z,8.94
2017-11-19T06:08:57.548Z,8.89
2017-11-19T06:09:37.583Z,8.85
2017-11-19T06:10:18.084Z,8.73
2017-11-19T06:10:58.400Z,8.78
2017-11-19T06:11:39.505Z,8.67
2017-11-19T06:12:20.048Z,8.79
2017-11-19T06:13:00.436Z,8.67
2017-11-19T06:13:41.501Z,8.75
2017-11-19T06:14:21.353Z,8.73
2017-11-19T06:15:01.879Z,8.88
2017-11-19T06:15:42.424Z,8.78
2017-11-19T06:16:23.018Z,8.71
2017-11-19T06:17:03.473Z,8.78
2017-11-19T06:17:43.907Z,8.75
2017-11-19T06:18:24.330Z,8.76
2017-11-19T06:19:04.924Z,8.78
2017-11-19T06:19:45.257Z,8.79
2017-11-19T06:20:25.739Z,8.71
2017-11-19T06:21:06.417Z,8.79
2017-11-19T06:21:47.146Z,8.73
2017-11-19T06:22:27.758Z,8.8
2017-11-19T06:23:07.944Z,8.71
2017-11-19T06:23:48.409Z,8.98
2017-11-19T06:24:29.057Z,8.98
2017-11-19T06:25:09.418Z,9.01
2017-11-19T06:25:49.937Z,9.03
2017-11-19T06:26:30.270Z,9.06
2017-11-19T06:27:10.792Z,9.08
2017-11-19T06:27:51.103Z,9.15
2017-11-19T06:28:31.544Z,9.12
2017-11-19T06:29:12.085Z,9.08
2017-11-19T06:29:52.467Z,9.08
2017-11-19T06:30:33.900Z,8.96
2017-11-19T06:31:14.448Z,8.96
2017-11-19T06:31:55.123Z,8.94
2017-11-19T06:32:35.825Z,8.94
2017-11-19T06:33:16.279Z,9.01
2017-11-19T06:33:56.903Z,8.97
2017-11-19T06:34:37.564Z,8.93
2017-11-19T06:35:18.223Z,8.97
2017-11-19T06:35:59.597Z,9.15
2017-11-19T06:36:39.933Z,9.15
2017-11-19T06:37:20.315Z,9.06
2017-11-19T06:38:01.706Z,9
2017-11-19T06:38:42.488Z,8.94
2017-11-19T06:39:22.694Z,8.98
2017-11-19T06:40:03.109Z,8.93
2017-11-19T06:40:43.779Z,8.88
2017-11-19T06:41:24.113Z,8.89
2017-11-19T06:42:04.764Z,8.76
2017-11-19T06:42:45.315Z,8.78
2017-11-19T06:43:25.764Z,8.75
2017-11-19T06:44:06.240Z,8.83
2017-11-19T06:44:47.416Z,8.8
2017-11-19T06:45:27.840Z,8.89
2017-11-19T06:46:08.803Z,8.93
2017-11-19T06:46:49.755Z,8.91
2017-11-19T06:47:30.084Z,8.94
2017-11-19T06:48:10.576Z,8.94
2017-11-19T06:48:51.009Z,8.97
2017-11-19T06:49:33.174Z,8.94
2017-11-19T06:50:13.532Z,8.91
2017-11-19T06:50:54.066Z,8.86
2017-11-19T06:51:34.352Z,8.75
2017-11-19T06:52:16.602Z,8.78
2017-11-19T06:52:57.114Z,8.71
2017-11-19T06:53:37.469Z,8.76
2017-11-19T06:54:17.861Z,8.78
2017-11-19T06:54:59.457Z,8.79
2017-11-19T06:55:39.735Z,8.82
2017-11-19T06:56:20.345Z,8.8
2017-11-19T06:57:02.000Z,8.68
2017-11-19T06:57:42.880Z,8.79
2017-11-19T06:58:23.327Z,8.91
2017-11-19T06:59:04.596Z,8.88
2017-11-19T06:59:45.212Z,8.89
2017-11-19T07:00:25.679Z,8.76
2017-11-19T07:01:06.280Z,8.73
2017-11-19T07:01:46.806Z,8.8
2017-11-19T07:02:27.261Z,8.8
2017-11-19T07:03:07.679Z,8.86
2017-11-19T07:03:48.350Z,8.76
2017-11-19T07:04:28.769Z,8.85
2017-11-19T07:05:09.223Z,8.76
2017-11-19T07:05:49.675Z,8.91
2017-11-19T07:06:30.161Z,9.01
2017-11-19T07:07:10.565Z,9.01
2017-11-19T07:07:51.023Z,9.08
2017-11-19T07:08:31.604Z,9.03
2017-11-19T07:09:12.024Z,9.08
2017-11-19T07:09:52.472Z,9.15
2017-11-19T07:10:32.978Z,9.08
2017-11-19T07:11:13.372Z,9.12
2017-11-19T07:11:53.878Z,9.08
2017-11-19T07:12:35.197Z,9.16
2017-11-19T07:13:15.637Z,9.2
2017-11-19T07:13:56.002Z,9.06
2017-11-19T07:14:36.742Z,9.08
2017-11-19T07:15:16.884Z,9.06
2017-11-19T07:15:57.339Z,9.12
2017-11-19T07:16:37.788Z,9.16
2017-11-19T07:17:18.251Z,9.27
2017-11-19T07:17:58.728Z,9.2
2017-11-19T07:18:39.176Z,9.17
2017-11-19T07:19:19.649Z,9.12
2017-11-19T07:20:00.024Z,9.13
2017-11-19T07:20:40.466Z,9.1
2017-11-19T07:21:21.038Z,9.15
2017-11-19T07:22:01.407Z,9.2
2017-11-19T07:22:41.992Z,9.12
2017-11-19T07:23:22.487Z,9.26
2017-11-19T07:24:03.005Z,9.2
2017-11-19T07:24:43.418Z,9.16
2017-11-19T07:25:24.027Z,9.16
2017-11-19T07:26:04.584Z,9.13
2017-11-19T07:26:45.041Z,9.16
2017-11-19T07:27:25.372Z,9.2
2017-11-19T07:28:05.783Z,9.32
2017-11-19T07:28:46.212Z,9.34
2017-11-19T07:29:26.669Z,9.3
2017-11-19T07:30:07.236Z,9.32
2017-11-19T07:30:47.794Z,9.55
2017-11-19T07:31:28.267Z,9.58
2017-11-19T07:32:08.782Z,9.6
2017-11-19T07:32:49.232Z,9.7
2017-11-19T07:33:30.124Z,9.83
2017-11-19T07:34:10.782Z,9.77
2017-11-19T07:34:51.234Z,9.8
2017-11-19T07:35:31.656Z,9.86
2017-11-19T07:36:12.111Z,9.77
2017-11-19T07:36:52.544Z,9.8
2017-11-19T07:37:33.011Z,9.83
2017-11-19T07:38:13.483Z,9.88
2017-11-19T07:38:53.894Z,9.83
2017-11-19T07:39:34.233Z,9.88
2017-11-19T07:40:14.807Z,9.91
2017-11-19T07:40:55.143Z,9.99
2017-11-19T07:41:35.791Z,10.07
2017-11-19T07:42:16.239Z,10.02
2017-11-19T07:42:56.917Z,9.99
2017-11-19T07:43:37.377Z,9.96
2017-11-19T07:44:17.900Z,10.02
2017-11-19T07:44:58.377Z,9.98
2017-11-19T07:45:38.815Z,9.96
2017-11-19T07:46:19.226Z,9.96
2017-11-19T07:46:59.770Z,9.91
2017-11-19T07:47:40.164Z,9.98
2017-11-19T07:48:20.643Z,10.06
2017-11-19T07:49:01.141Z,9.99
2017-11-19T07:49:41.570Z,10.04
2017-11-19T07:50:21.982Z,10.01
2017-11-19T07:51:02.496Z,9.93
2017-11-19T07:51:42.960Z,9.8
2017-11-19T07:52:23.698Z,9.81
2017-11-19T07:53:04.034Z,9.67
2017-11-19T07:53:44.450Z,9.7
2017-11-19T07:54:24.911Z,9.8
2017-11-19T07:55:05.370Z,9.77
2017-11-19T07:55:45.854Z,9.85
2017-11-19T07:56:26.366Z,9.81
2017-11-19T07:57:06.823Z,9.89
2017-11-19T07:57:47.278Z,9.92
2017-11-19T07:58:27.706Z,9.8
2017-11-19T07:59:08.103Z,9.77
2017-11-19T07:59:50.837Z,9.77
2017-11-19T08:00:31.188Z,9.75
2017-11-19T08:01:11.649Z,9.88
2017-11-19T08:01:52.048Z,9.85
2017-11-19T08:02:32.505Z,9.8
2017-11-19T08:03:13.033Z,9.85
2017-11-19T08:03:53.822Z,9.78
2017-11-19T08:04:34.368Z,9.71
2017-11-19T08:05:14.875Z,9.83
2017-11-19T08:05:55.302Z,9.8
2017-11-19T08:06:35.685Z,9.77
2017-11-19T08:07:16.177Z,9.75
2017-11-19T08:07:56.591Z,9.71
2017-11-19T08:08:37.093Z,9.68
2017-11-19T08:09:17.634Z,9.67
2017-11-19T08:09:58.105Z,9.65
2017-11-19T08:10:39.103Z,9.7
2017-11-19T08:11:19.538Z,9.85
2017-11-19T08:12:00.548Z,9.75
2017-11-19T08:12:40.994Z,9.75
2017-11-19T08:13:21.479Z,9.89
2017-11-19T08:14:01.905Z,9.8
2017-11-19T08:14:42.426Z,9.77
2017-11-19T08:15:22.814Z,9.78
2017-11-19T08:16:03.189Z,9.83
2017-11-19T08:16:43.605Z,9.83
2017-11-19T08:17:24.003Z,9.83
2017-11-19T08:18:04.393Z,9.88
2017-11-19T08:18:44.904Z,9.88
2017-11-19T08:19:25.237Z,9.99
2017-11-19T08:20:05.649Z,10.06
2017-11-19T08:20:46.103Z,10.07
2017-11-19T08:21:26.491Z,10.02
2017-11-19T08:22:07.003Z,10.06
2017-11-19T08:22:47.458Z,10.07
2017-11-19T08:23:27.990Z,9.98
2017-11-19T08:24:08.647Z,10.11
2017-11-19T08:24:49.075Z,10.11
2017-11-19T08:25:29.478Z,10.09
2017-11-19T08:26:09.908Z,10.02
2017-11-19T08:26:50.469Z,10.13
2017-11-19T08:27:30.889Z,10.1
2017-11-19T08:28:12.270Z,10.2
2017-11-19T08:28:52.822Z,10.31
2017-11-19T08:29:35.053Z,10.34
2017-11-19T08:30:17.084Z,10.43
2017-11-19T08:30:58.554Z,10.39
2017-11-19T08:31:38.933Z,10.58
2017-11-19T08:32:19.589Z,10.58
2017-11-19T08:33:00.236Z,10.72
2017-11-19T08:33:40.445Z,10.98
2017-11-19T08:34:21.964Z,11.13
2017-11-19T08:35:03.404Z,11.19
2017-11-19T08:35:45.091Z,11.28
2017-11-19T08:36:26.297Z,11.35
2017-11-19T08:37:06.564Z,11.62
2017-11-19T08:37:47.029Z,11.82
2017-11-19T08:38:28.854Z,11.9
2017-11-19T08:39:09.486Z,12.04
2017-11-19T08:39:49.995Z,12.11
2017-11-19T08:40:31.705Z,12.37
2017-11-19T08:41:12.154Z,12.38
2017-11-19T08:41:53.715Z,12.41
2017-11-19T08:42:34.471Z,12.44
2017-11-19T08:43:14.865Z,12.41
2017-11-19T08:43:59.871Z,12.31
2017-11-19T08:44:42.672Z,12.33
2017-11-19T08:45:23.565Z,12.4
2017-11-19T08:47:34.105Z,12.56
2017-11-19T08:48:29.125Z,12.55
2017-11-19T08:50:57.374Z,12.37
2017-11-19T08:51:37.970Z,12.37
2017-11-19T08:52:19.080Z,12.21
2017-11-19T08:53:01.195Z,11.97
2017-11-19T08:53:42.306Z,11.97
2017-11-19T08:54:24.138Z,12.01
2017-11-19T08:55:06.192Z,12
2017-11-19T08:55:46.935Z,11.9
2017-11-19T08:56:27.289Z,11.78
2017-11-19T08:57:08.976Z,11.75
2017-11-19T08:57:50.353Z,11.84
2017-11-19T08:58:30.893Z,11.81
2017-11-19T08:59:11.276Z,11.77
2017-11-19T08:59:52.287Z,11.88
2017-11-19T09:00:33.029Z,12.04
2017-11-19T09:01:14.040Z,12
2017-11-19T09:01:54.628Z,12.11
2017-11-19T09:02:35.145Z,12.12
2017-11-19T09:03:15.727Z,12.48
2017-11-19T09:03:56.968Z,12.73
2017-11-19T09:04:37.540Z,12.92
2017-11-19T09:05:18.779Z,13.06
2017-11-19T09:05:59.779Z,13.22
2017-11-19T09:06:40.177Z,13.46
2017-11-19T09:07:20.410Z,13.55
2017-11-19T09:08:01.378Z,13.59
2017-11-19T09:08:44.077Z,13.9
2017-11-19T09:09:24.623Z,13.83
2017-11-19T09:10:05.504Z,13.86
2017-11-19T09:10:45.938Z,13.83
2017-11-19T09:11:26.435Z,13.88
2017-11-19T09:12:06.942Z,13.91
2017-11-19T09:12:48.051Z,14.04
2017-11-19T09:13:28.933Z,14.12
2017-11-19T09:14:09.406Z,14.13
2017-11-19T09:14:50.590Z,14.2
2017-11-19T09:15:31.999Z,14.3
2017-11-19T09:16:12.336Z,14.36
2017-11-19T09:16:54.161Z,14.31
2017-11-19T09:17:34.066Z,14.45
2017-11-19T09:18:14.433Z,14.49
2017-11-19T09:18:55.057Z,14.61
2017-11-19T09:19:35.576Z,14.66
2017-11-19T09:20:17.034Z,14.66
2017-11-19T09:20:57.542Z,14.71
2017-11-19T09:21:38.385Z,14.83
2017-11-19T09:22:18.751Z,14.75
2017-11-19T09:22:59.238Z,14.9
2017-11-19T09:23:41.321Z,14.85
2017-11-19T09:24:21.478Z,14.78
2017-11-19T09:25:03.231Z,14.71
2017-11-19T09:25:44.089Z,14.79
2017-11-19T09:26:24.636Z,14.74
2017-11-19T09:27:05.909Z,14.79
2017-11-19T09:27:46.535Z,14.82
2017-11-19T09:28:26.881Z,14.79
2017-11-19T09:29:07.335Z,14.8
2017-11-19T09:29:47.811Z,14.64
2017-11-19T09:30:28.258Z,14.61
2017-11-19T09:31:09.324Z,14.61
2017-11-19T09:31:49.358Z,14.66
2017-11-19T09:32:30.175Z,14.67
2017-11-19T09:33:10.546Z,14.8
2017-11-19T09:33:51.092Z,14.74
2017-11-19T09:34:31.819Z,14.71
2017-11-19T09:35:13.036Z,14.69
2017-11-19T09:35:53.949Z,14.8
2017-11-19T09:36:34.640Z,14.8
2017-11-19T09:37:15.041Z,14.9
2017-11-19T09:37:55.513Z,15
2017-11-19T09:38:36.078Z,15.05
2017-11-19T09:39:16.515Z,14.93
2017-11-19T09:39:58.778Z,14.93
2017-11-19T09:40:39.394Z,15
2017-11-19T09:41:21.246Z,15.18
2017-11-19T09:42:01.973Z,15.25
2017-11-19T09:42:42.486Z,15.41
2017-11-19T09:43:22.990Z,15.4